sensor_id;sensor_type;location;lat;lon;timestamp;temperature;humidity
42099;DHT22;27758;55.900;8.516;2023-02-20T00:00:21;7.00;99.90
42099;DHT22;27758;55.900;8.516;2023-02-20T00:02:47;7.00;99.90
42099;DHT22;27758;55.900;8.516;2023-02-20T00:05:14;7.00;99.90
42099;DHT22;27758;55.900;8.516;2023-02-20T00:07:40;7.00;99.90
42099;DHT22;27758;55.900;8.516;2023-02-20T00:10:07;7.10;99.90
42099;DHT22;27758;55.900;8.516;2023-02-20T00:12:32;7.10;99.90
42099;DHT22;27758;55.900;8.516;2023-02-20T00:14:58;7.10;99.90
42099;DHT22;27758;55.900;8.516;2023-02-20T00:17:24;7.10;99.90
42099;DHT22;27758;55.900;8.516;2023-02-20T00:19:50;7.10;99.90
42099;DHT22;27758;55.900;8.516;2023-02-20T00:22:15;7.10;99.90
42099;DHT22;27758;55.900;8.516;2023-02-20T00:24:41;7.10;99.90
42099;DHT22;27758;55.900;8.516;2023-02-20T00:27:07;7.10;99.90
42099;DHT22;27758;55.900;8.516;2023-02-20T00:29:32;7.10;99.90
42099;DHT22;27758;55.900;8.516;2023-02-20T00:31:58;7.10;99.90
42099;DHT22;27758;55.900;8.516;2023-02-20T00:34:27;7.10;99.90
42099;DHT22;27758;55.900;8.516;2023-02-20T00:36:52;7.10;99.90
42099;DHT22;27758;55.900;8.516;2023-02-20T00:39:18;7.10;99.90
42099;DHT22;27758;55.900;8.516;2023-02-20T00:41:44;7.20;99.90
42099;DHT22;27758;55.900;8.516;2023-02-20T00:44:10;7.10;99.90
42099;DHT22;27758;55.900;8.516;2023-02-20T00:46:36;7.10;99.90
42099;DHT22;27758;55.900;8.516;2023-02-20T00:49:02;7.10;99.90
42099;DHT22;27758;55.900;8.516;2023-02-20T00:51:27;7.20;99.90
42099;DHT22;27758;55.900;8.516;2023-02-20T00:53:53;7.10;99.90
42099;DHT22;27758;55.900;8.516;2023-02-20T00:56:19;7.10;99.90
42099;DHT22;27758;55.900;8.516;2023-02-20T00:58:45;7.10;99.90
42099;DHT22;27758;55.900;8.516;2023-02-20T01:01:10;7.20;99.90
42099;DHT22;27758;55.900;8.516;2023-02-20T01:03:36;7.20;99.90
42099;DHT22;27758;55.900;8.516;2023-02-20T01:06:02;7.10;99.90
42099;DHT22;27758;55.900;8.516;2023-02-20T01:08:27;7.10;99.90
42099;DHT22;27758;55.900;8.516;2023-02-20T01:10:53;7.20;99.90
42099;DHT22;27758;55.900;8.516;2023-02-20T01:13:19;7.20;99.90
42099;DHT22;27758;55.900;8.516;2023-02-20T01:15:45;7.20;99.90
42099;DHT22;27758;55.900;8.516;2023-02-20T01:18:10;7.20;99.90
42099;DHT22;27758;55.900;8.516;2023-02-20T01:20:36;7.20;99.90
42099;DHT22;27758;55.900;8.516;2023-02-20T01:23:02;7.20;99.90
42099;DHT22;27758;55.900;8.516;2023-02-20T01:25:28;7.20;99.90
42099;DHT22;27758;55.900;8.516;2023-02-20T01:27:53;7.20;99.90
42099;DHT22;27758;55.900;8.516;2023-02-20T01:30:19;7.30;99.90
42099;DHT22;27758;55.900;8.516;2023-02-20T01:32:45;7.20;99.90
42099;DHT22;27758;55.900;8.516;2023-02-20T01:35:10;7.20;99.90
42099;DHT22;27758;55.900;8.516;2023-02-20T01:37:36;7.30;99.90
42099;DHT22;27758;55.900;8.516;2023-02-20T01:40:03;7.30;99.90
42099;DHT22;27758;55.900;8.516;2023-02-20T01:42:31;7.30;99.90
42099;DHT22;27758;55.900;8.516;2023-02-20T01:47:47;7.40;99.90
42099;DHT22;27758;55.900;8.516;2023-02-20T01:50:14;7.40;99.90
42099;DHT22;27758;55.900;8.516;2023-02-20T01:52:42;7.40;99.90
42099;DHT22;27758;55.900;8.516;2023-02-20T01:55:17;7.40;99.90
42099;DHT22;27758;55.900;8.516;2023-02-20T01:57:54;7.40;99.90
42099;DHT22;27758;55.900;8.516;2023-02-20T02:00:22;7.50;99.90
42099;DHT22;27758;55.900;8.516;2023-02-20T02:03:03;7.50;99.90
42099;DHT22;27758;55.900;8.516;2023-02-20T02:05:30;7.50;99.90
42099;DHT22;27758;55.900;8.516;2023-02-20T02:07:58;7.50;99.90
42099;DHT22;27758;55.900;8.516;2023-02-20T02:10:42;7.50;99.90
42099;DHT22;27758;55.900;8.516;2023-02-20T02:13:11;7.60;99.90
42099;DHT22;27758;55.900;8.516;2023-02-20T02:15:36;7.60;99.90
42099;DHT22;27758;55.900;8.516;2023-02-20T02:18:29;7.60;99.90
42099;DHT22;27758;55.900;8.516;2023-02-20T02:24:21;7.60;99.90
42099;DHT22;27758;55.900;8.516;2023-02-20T02:33:04;7.70;99.90
42099;DHT22;27758;55.900;8.516;2023-02-20T02:38:16;7.70;99.90
42099;DHT22;27758;55.900;8.516;2023-02-20T02:41:14;7.70;99.90
42099;DHT22;27758;55.900;8.516;2023-02-20T02:43:53;7.70;99.90
42099;DHT22;27758;55.900;8.516;2023-02-20T02:46:36;7.70;99.90
42099;DHT22;27758;55.900;8.516;2023-02-20T02:49:16;7.60;99.90
42099;DHT22;27758;55.900;8.516;2023-02-20T02:51:45;7.70;99.90
42099;DHT22;27758;55.900;8.516;2023-02-20T02:54:18;7.60;99.90
42099;DHT22;27758;55.900;8.516;2023-02-20T02:56:47;7.70;99.90
42099;DHT22;27758;55.900;8.516;2023-02-20T02:59:20;7.60;99.90
42099;DHT22;27758;55.900;8.516;2023-02-20T03:01:52;7.70;99.90
42099;DHT22;27758;55.900;8.516;2023-02-20T03:04:20;7.70;99.90
42099;DHT22;27758;55.900;8.516;2023-02-20T03:07:07;7.70;99.90
42099;DHT22;27758;55.900;8.516;2023-02-20T03:09:37;7.70;99.90
42099;DHT22;27758;55.900;8.516;2023-02-20T03:12:05;7.70;99.90
42099;DHT22;27758;55.900;8.516;2023-02-20T03:14:40;7.70;99.90
42099;DHT22;27758;55.900;8.516;2023-02-20T03:17:36;7.70;99.90
42099;DHT22;27758;55.900;8.516;2023-02-20T03:20:09;7.70;99.90
42099;DHT22;27758;55.900;8.516;2023-02-20T03:22:57;7.70;99.90
42099;DHT22;27758;55.900;8.516;2023-02-20T03:25:43;7.70;99.90
42099;DHT22;27758;55.900;8.516;2023-02-20T03:28:15;7.70;99.90
42099;DHT22;27758;55.900;8.516;2023-02-20T03:30:57;7.60;99.90
42099;DHT22;27758;55.900;8.516;2023-02-20T03:33:46;7.70;99.90
42099;DHT22;27758;55.900;8.516;2023-02-20T03:36:38;7.70;99.90
42099;DHT22;27758;55.900;8.516;2023-02-20T03:39:32;7.70;99.90
42099;DHT22;27758;55.900;8.516;2023-02-20T03:42:19;7.70;99.90
42099;DHT22;27758;55.900;8.516;2023-02-20T03:45:07;7.70;99.90
42099;DHT22;27758;55.900;8.516;2023-02-20T03:47:36;7.70;99.90
42099;DHT22;27758;55.900;8.516;2023-02-20T03:50:04;7.70;99.90
42099;DHT22;27758;55.900;8.516;2023-02-20T03:52:51;7.70;99.90
42099;DHT22;27758;55.900;8.516;2023-02-20T03:55:17;7.70;99.90
42099;DHT22;27758;55.900;8.516;2023-02-20T03:57:48;7.80;99.90
42099;DHT22;27758;55.900;8.516;2023-02-20T04:00:21;7.80;99.90
42099;DHT22;27758;55.900;8.516;2023-02-20T04:02:51;7.80;99.90
42099;DHT22;27758;55.900;8.516;2023-02-20T04:05:29;7.80;99.90
42099;DHT22;27758;55.900;8.516;2023-02-20T04:08:09;7.80;99.90
42099;DHT22;27758;55.900;8.516;2023-02-20T04:10:44;7.90;99.90
42099;DHT22;27758;55.900;8.516;2023-02-20T04:13:13;7.90;99.90
42099;DHT22;27758;55.900;8.516;2023-02-20T04:15:40;7.90;99.90
42099;DHT22;27758;55.900;8.516;2023-02-20T04:18:14;7.90;99.90
42099;DHT22;27758;55.900;8.516;2023-02-20T04:20:43;7.90;99.90
42099;DHT22;27758;55.900;8.516;2023-02-20T04:23:16;7.90;99.90
42099;DHT22;27758;55.900;8.516;2023-02-20T04:26:11;7.90;99.90
42099;DHT22;27758;55.900;8.516;2023-02-20T04:28:38;7.80;99.90
42099;DHT22;27758;55.900;8.516;2023-02-20T04:31:04;7.80;99.90
42099;DHT22;27758;55.900;8.516;2023-02-20T04:33:30;7.80;99.90
42099;DHT22;27758;55.900;8.516;2023-02-20T04:35:55;7.80;99.90
42099;DHT22;27758;55.900;8.516;2023-02-20T04:38:23;7.80;99.90
42099;DHT22;27758;55.900;8.516;2023-02-20T04:40:49;7.90;99.90
42099;DHT22;27758;55.900;8.516;2023-02-20T04:43:17;7.90;99.90
42099;DHT22;27758;55.900;8.516;2023-02-20T04:45:43;7.90;99.90
42099;DHT22;27758;55.900;8.516;2023-02-20T04:48:09;7.90;99.90
42099;DHT22;27758;55.900;8.516;2023-02-20T04:50:35;7.90;99.90
42099;DHT22;27758;55.900;8.516;2023-02-20T04:53:01;7.90;99.90
42099;DHT22;27758;55.900;8.516;2023-02-20T04:55:27;7.90;99.90
42099;DHT22;27758;55.900;8.516;2023-02-20T04:57:53;8.00;99.90
42099;DHT22;27758;55.900;8.516;2023-02-20T05:00:21;8.00;99.90
42099;DHT22;27758;55.900;8.516;2023-02-20T05:02:47;8.00;99.90
42099;DHT22;27758;55.900;8.516;2023-02-20T05:05:22;8.00;99.90
42099;DHT22;27758;55.900;8.516;2023-02-20T05:07:48;8.00;99.90
42099;DHT22;27758;55.900;8.516;2023-02-20T05:10:19;8.00;99.90
42099;DHT22;27758;55.900;8.516;2023-02-20T05:12:45;8.00;99.90
42099;DHT22;27758;55.900;8.516;2023-02-20T05:15:11;8.00;99.90
42099;DHT22;27758;55.900;8.516;2023-02-20T05:17:37;8.00;99.90
42099;DHT22;27758;55.900;8.516;2023-02-20T05:20:04;8.00;99.90
42099;DHT22;27758;55.900;8.516;2023-02-20T05:22:30;8.00;99.90
42099;DHT22;27758;55.900;8.516;2023-02-20T05:24:56;8.00;99.90
42099;DHT22;27758;55.900;8.516;2023-02-20T05:27:23;8.00;99.90
42099;DHT22;27758;55.900;8.516;2023-02-20T05:29:51;8.00;99.90
42099;DHT22;27758;55.900;8.516;2023-02-20T05:32:18;8.00;99.90
42099;DHT22;27758;55.900;8.516;2023-02-20T05:34:44;8.00;99.90
42099;DHT22;27758;55.900;8.516;2023-02-20T05:37:11;8.00;99.90
42099;DHT22;27758;55.900;8.516;2023-02-20T05:39:37;8.00;99.90
42099;DHT22;27758;55.900;8.516;2023-02-20T05:42:04;8.00;99.90
42099;DHT22;27758;55.900;8.516;2023-02-20T05:44:30;8.10;99.90
42099;DHT22;27758;55.900;8.516;2023-02-20T05:46:56;8.10;99.90
42099;DHT22;27758;55.900;8.516;2023-02-20T05:49:23;8.10;99.90
42099;DHT22;27758;55.900;8.516;2023-02-20T05:51:48;8.10;99.90
42099;DHT22;27758;55.900;8.516;2023-02-20T05:54:16;8.10;99.90
42099;DHT22;27758;55.900;8.516;2023-02-20T05:56:42;8.10;99.90
42099;DHT22;27758;55.900;8.516;2023-02-20T05:59:08;8.10;99.90
42099;DHT22;27758;55.900;8.516;2023-02-20T06:01:34;8.20;99.90
42099;DHT22;27758;55.900;8.516;2023-02-20T06:04:00;8.20;99.90
42099;DHT22;27758;55.900;8.516;2023-02-20T06:06:32;8.30;99.90
42099;DHT22;27758;55.900;8.516;2023-02-20T06:08:58;8.30;99.90
42099;DHT22;27758;55.900;8.516;2023-02-20T06:11:23;8.30;99.90
42099;DHT22;27758;55.900;8.516;2023-02-20T06:13:49;8.30;99.90
42099;DHT22;27758;55.900;8.516;2023-02-20T06:16:22;8.30;99.90
42099;DHT22;27758;55.900;8.516;2023-02-20T06:18:48;8.40;99.90
42099;DHT22;27758;55.900;8.516;2023-02-20T06:21:14;8.40;99.90
42099;DHT22;27758;55.900;8.516;2023-02-20T06:23:42;8.40;99.90
42099;DHT22;27758;55.900;8.516;2023-02-20T06:26:11;8.40;99.90
42099;DHT22;27758;55.900;8.516;2023-02-20T06:28:37;8.40;99.90
42099;DHT22;27758;55.900;8.516;2023-02-20T06:31:04;8.40;99.90
42099;DHT22;27758;55.900;8.516;2023-02-20T06:33:30;8.40;99.90
42099;DHT22;27758;55.900;8.516;2023-02-20T06:35:56;8.40;99.90
42099;DHT22;27758;55.900;8.516;2023-02-20T06:38:21;8.40;99.90
42099;DHT22;27758;55.900;8.516;2023-02-20T06:40:47;8.40;99.90
42099;DHT22;27758;55.900;8.516;2023-02-20T06:43:13;8.40;99.90
42099;DHT22;27758;55.900;8.516;2023-02-20T06:45:39;8.40;99.90
42099;DHT22;27758;55.900;8.516;2023-02-20T06:48:05;8.40;99.90
42099;DHT22;27758;55.900;8.516;2023-02-20T06:50:30;8.40;99.90
42099;DHT22;27758;55.900;8.516;2023-02-20T06:52:56;8.40;99.90
42099;DHT22;27758;55.900;8.516;2023-02-20T06:55:22;8.40;99.90
42099;DHT22;27758;55.900;8.516;2023-02-20T06:57:48;8.40;99.90
42099;DHT22;27758;55.900;8.516;2023-02-20T07:00:14;8.40;99.90
42099;DHT22;27758;55.900;8.516;2023-02-20T07:02:40;8.50;99.90
42099;DHT22;27758;55.900;8.516;2023-02-20T07:05:06;8.50;99.90
42099;DHT22;27758;55.900;8.516;2023-02-20T07:07:33;8.50;99.90
42099;DHT22;27758;55.900;8.516;2023-02-20T07:09:59;8.40;99.90
42099;DHT22;27758;55.900;8.516;2023-02-20T07:12:29;8.40;99.90
42099;DHT22;27758;55.900;8.516;2023-02-20T07:14:55;8.40;99.90
42099;DHT22;27758;55.900;8.516;2023-02-20T07:17:21;8.40;99.90
42099;DHT22;27758;55.900;8.516;2023-02-20T07:19:47;8.40;99.90
42099;DHT22;27758;55.900;8.516;2023-02-20T07:22:12;8.50;99.90
42099;DHT22;27758;55.900;8.516;2023-02-20T07:24:38;8.40;99.90
42099;DHT22;27758;55.900;8.516;2023-02-20T07:27:06;8.50;99.90
42099;DHT22;27758;55.900;8.516;2023-02-20T07:29:35;8.50;99.90
42099;DHT22;27758;55.900;8.516;2023-02-20T07:32:01;8.50;99.90
42099;DHT22;27758;55.900;8.516;2023-02-20T07:34:27;8.50;99.90
42099;DHT22;27758;55.900;8.516;2023-02-20T07:36:53;8.40;99.90
42099;DHT22;27758;55.900;8.516;2023-02-20T07:39:19;8.40;99.90
42099;DHT22;27758;55.900;8.516;2023-02-20T07:41:44;8.50;99.90
42099;DHT22;27758;55.900;8.516;2023-02-20T07:44:10;8.50;99.90
42099;DHT22;27758;55.900;8.516;2023-02-20T07:46:39;8.50;99.90
42099;DHT22;27758;55.900;8.516;2023-02-20T07:49:04;8.50;99.90
42099;DHT22;27758;55.900;8.516;2023-02-20T07:51:31;8.60;99.90
42099;DHT22;27758;55.900;8.516;2023-02-20T07:53:57;8.60;99.90
42099;DHT22;27758;55.900;8.516;2023-02-20T07:56:23;8.50;99.90
42099;DHT22;27758;55.900;8.516;2023-02-20T07:58:49;8.60;99.90
42099;DHT22;27758;55.900;8.516;2023-02-20T08:01:16;8.60;99.90
42099;DHT22;27758;55.900;8.516;2023-02-20T08:03:42;8.50;99.90
42099;DHT22;27758;55.900;8.516;2023-02-20T08:06:07;8.60;99.90
42099;DHT22;27758;55.900;8.516;2023-02-20T08:08:33;8.60;99.90
42099;DHT22;27758;55.900;8.516;2023-02-20T08:10:59;8.60;99.90
42099;DHT22;27758;55.900;8.516;2023-02-20T08:13:25;8.60;99.90
42099;DHT22;27758;55.900;8.516;2023-02-20T08:15:51;8.60;99.90
42099;DHT22;27758;55.900;8.516;2023-02-20T08:18:17;8.60;99.90
42099;DHT22;27758;55.900;8.516;2023-02-20T08:20:42;8.60;99.90
42099;DHT22;27758;55.900;8.516;2023-02-20T08:23:19;8.60;99.90
42099;DHT22;27758;55.900;8.516;2023-02-20T08:25:46;8.60;99.90
42099;DHT22;27758;55.900;8.516;2023-02-20T08:28:12;8.60;99.90
42099;DHT22;27758;55.900;8.516;2023-02-20T08:30:38;8.60;99.90
42099;DHT22;27758;55.900;8.516;2023-02-20T08:33:04;8.60;99.90
42099;DHT22;27758;55.900;8.516;2023-02-20T08:35:34;8.60;99.90
42099;DHT22;27758;55.900;8.516;2023-02-20T08:38:05;8.60;99.90
42099;DHT22;27758;55.900;8.516;2023-02-20T08:40:31;8.60;99.90
42099;DHT22;27758;55.900;8.516;2023-02-20T08:42:57;8.60;99.90
42099;DHT22;27758;55.900;8.516;2023-02-20T08:45:22;8.60;99.90
42099;DHT22;27758;55.900;8.516;2023-02-20T08:47:49;8.60;99.90
42099;DHT22;27758;55.900;8.516;2023-02-20T08:50:17;8.60;99.90
42099;DHT22;27758;55.900;8.516;2023-02-20T08:52:44;8.60;99.90
42099;DHT22;27758;55.900;8.516;2023-02-20T08:55:11;8.60;99.90
42099;DHT22;27758;55.900;8.516;2023-02-20T08:57:36;8.60;99.90
42099;DHT22;27758;55.900;8.516;2023-02-20T09:00:05;8.70;99.90
42099;DHT22;27758;55.900;8.516;2023-02-20T09:02:31;8.60;99.90
42099;DHT22;27758;55.900;8.516;2023-02-20T09:04:57;8.60;99.90
42099;DHT22;27758;55.900;8.516;2023-02-20T09:07:23;8.70;99.90
42099;DHT22;27758;55.900;8.516;2023-02-20T09:09:49;8.70;99.90
42099;DHT22;27758;55.900;8.516;2023-02-20T09:12:15;8.70;99.90
42099;DHT22;27758;55.900;8.516;2023-02-20T09:14:41;8.70;99.90
42099;DHT22;27758;55.900;8.516;2023-02-20T09:17:07;8.70;99.90
42099;DHT22;27758;55.900;8.516;2023-02-20T09:19:33;8.70;99.90
42099;DHT22;27758;55.900;8.516;2023-02-20T09:21:59;8.60;99.90
42099;DHT22;27758;55.900;8.516;2023-02-20T09:24:25;8.60;99.90
42099;DHT22;27758;55.900;8.516;2023-02-20T09:26:56;8.60;99.90
42099;DHT22;27758;55.900;8.516;2023-02-20T09:29:22;8.60;99.90
42099;DHT22;27758;55.900;8.516;2023-02-20T09:31:48;8.60;99.90
42099;DHT22;27758;55.900;8.516;2023-02-20T09:34:13;8.60;99.90
42099;DHT22;27758;55.900;8.516;2023-02-20T09:36:39;8.60;99.90
42099;DHT22;27758;55.900;8.516;2023-02-20T09:39:05;8.50;99.90
42099;DHT22;27758;55.900;8.516;2023-02-20T09:41:41;8.60;99.90
42099;DHT22;27758;55.900;8.516;2023-02-20T09:47:01;8.60;99.90
42099;DHT22;27758;55.900;8.516;2023-02-20T09:49:32;8.60;99.90
42099;DHT22;27758;55.900;8.516;2023-02-20T09:52:02;8.60;99.90
42099;DHT22;27758;55.900;8.516;2023-02-20T09:54:42;8.50;99.90
42099;DHT22;27758;55.900;8.516;2023-02-20T09:57:16;8.50;99.90
42099;DHT22;27758;55.900;8.516;2023-02-20T10:00:03;8.60;99.90
42099;DHT22;27758;55.900;8.516;2023-02-20T10:02:35;8.50;99.90
42099;DHT22;27758;55.900;8.516;2023-02-20T10:05:06;8.50;99.90
42099;DHT22;27758;55.900;8.516;2023-02-20T10:07:37;8.50;99.90
42099;DHT22;27758;55.900;8.516;2023-02-20T10:10:24;8.50;99.90
42099;DHT22;27758;55.900;8.516;2023-02-20T10:16:01;8.40;99.90
42099;DHT22;27758;55.900;8.516;2023-02-20T10:19:05;8.40;99.90
42099;DHT22;27758;55.900;8.516;2023-02-20T10:24:37;8.40;99.90
42099;DHT22;27758;55.900;8.516;2023-02-20T10:29:53;8.40;99.90
42099;DHT22;27758;55.900;8.516;2023-02-20T10:38:30;8.40;99.90
42099;DHT22;27758;55.900;8.516;2023-02-20T10:41:18;8.40;99.90
42099;DHT22;27758;55.900;8.516;2023-02-20T10:43:54;8.40;99.90
42099;DHT22;27758;55.900;8.516;2023-02-20T10:46:40;8.40;99.90
42099;DHT22;27758;55.900;8.516;2023-02-20T10:49:14;8.40;99.90
42099;DHT22;27758;55.900;8.516;2023-02-20T10:51:43;8.40;99.90
42099;DHT22;27758;55.900;8.516;2023-02-20T10:54:12;8.40;99.90
42099;DHT22;27758;55.900;8.516;2023-02-20T10:56:46;8.40;99.90
42099;DHT22;27758;55.900;8.516;2023-02-20T11:01:55;8.50;99.90
42099;DHT22;27758;55.900;8.516;2023-02-20T11:04:29;8.50;99.90
42099;DHT22;27758;55.900;8.516;2023-02-20T11:07:13;8.50;99.90
42099;DHT22;27758;55.900;8.516;2023-02-20T11:09:42;8.50;99.90
42099;DHT22;27758;55.900;8.516;2023-02-20T11:12:21;8.40;99.90
42099;DHT22;27758;55.900;8.516;2023-02-20T11:14:48;8.50;99.90
42099;DHT22;27758;55.900;8.516;2023-02-20T11:17:20;8.40;99.90
42099;DHT22;27758;55.900;8.516;2023-02-20T11:19:49;8.40;99.90
42099;DHT22;27758;55.900;8.516;2023-02-20T11:22:17;8.40;99.90
42099;DHT22;27758;55.900;8.516;2023-02-20T11:24:46;8.40;99.90
42099;DHT22;27758;55.900;8.516;2023-02-20T11:27:18;8.30;99.90
42099;DHT22;27758;55.900;8.516;2023-02-20T11:29:49;8.20;99.90
42099;DHT22;27758;55.900;8.516;2023-02-20T11:34:45;8.20;99.90
42099;DHT22;27758;55.900;8.516;2023-02-20T11:37:11;8.20;99.90
42099;DHT22;27758;55.900;8.516;2023-02-20T11:39:45;8.10;99.90
42099;DHT22;27758;55.900;8.516;2023-02-20T11:42:15;8.10;99.90
42099;DHT22;27758;55.900;8.516;2023-02-20T11:44:42;8.10;99.90
42099;DHT22;27758;55.900;8.516;2023-02-20T11:49:34;8.10;99.90
42099;DHT22;27758;55.900;8.516;2023-02-20T11:52:17;8.10;99.90
42099;DHT22;27758;55.900;8.516;2023-02-20T11:54:43;8.10;99.90
42099;DHT22;27758;55.900;8.516;2023-02-20T11:57:28;8.00;99.90
42099;DHT22;27758;55.900;8.516;2023-02-20T12:05:14;8.00;99.90
42099;DHT22;27758;55.900;8.516;2023-02-20T12:12:46;8.00;99.90
42099;DHT22;27758;55.900;8.516;2023-02-20T12:15:14;8.00;99.90
42099;DHT22;27758;55.900;8.516;2023-02-20T12:20:26;8.10;99.90
42099;DHT22;27758;55.900;8.516;2023-02-20T12:23:03;8.20;99.90
42099;DHT22;27758;55.900;8.516;2023-02-20T12:28:56;8.20;99.90
42099;DHT22;27758;55.900;8.516;2023-02-20T12:43:04;8.30;99.90
42099;DHT22;27758;55.900;8.516;2023-02-20T12:45:32;8.20;99.90
42099;DHT22;27758;55.900;8.516;2023-02-20T12:57:02;8.20;99.90
42099;DHT22;27758;55.900;8.516;2023-02-20T12:59:45;8.20;99.90
42099;DHT22;27758;55.900;8.516;2023-02-20T13:02:37;8.20;99.90
42099;DHT22;27758;55.900;8.516;2023-02-20T13:05:06;8.20;99.90
42099;DHT22;27758;55.900;8.516;2023-02-20T13:08:08;8.20;99.90
42099;DHT22;27758;55.900;8.516;2023-02-20T13:10:33;8.20;99.90
42099;DHT22;27758;55.900;8.516;2023-02-20T13:13:00;8.20;99.90
42099;DHT22;27758;55.900;8.516;2023-02-20T13:18:17;8.20;99.90
42099;DHT22;27758;55.900;8.516;2023-02-20T13:20:48;8.20;99.90
42099;DHT22;27758;55.900;8.516;2023-02-20T13:25:58;8.20;99.90
42099;DHT22;27758;55.900;8.516;2023-02-20T13:28:32;8.20;99.90
42099;DHT22;27758;55.900;8.516;2023-02-20T13:33:41;8.20;99.90
42099;DHT22;27758;55.900;8.516;2023-02-20T13:36:40;8.20;99.90
42099;DHT22;27758;55.900;8.516;2023-02-20T13:58:00;8.00;99.90
42099;DHT22;27758;55.900;8.516;2023-02-20T14:00:50;8.00;99.90
42099;DHT22;27758;55.900;8.516;2023-02-20T14:08:39;8.10;99.90
42099;DHT22;27758;55.900;8.516;2023-02-20T14:11:12;8.10;99.90
42099;DHT22;27758;55.900;8.516;2023-02-20T14:13:40;8.10;99.90
42099;DHT22;27758;55.900;8.516;2023-02-20T14:16:41;8.10;99.90
42099;DHT22;27758;55.900;8.516;2023-02-20T14:19:28;8.10;99.90
42099;DHT22;27758;55.900;8.516;2023-02-20T14:21:54;8.10;99.90
42099;DHT22;27758;55.900;8.516;2023-02-20T14:24:27;8.10;99.90
42099;DHT22;27758;55.900;8.516;2023-02-20T14:26:54;8.10;99.90
42099;DHT22;27758;55.900;8.516;2023-02-20T14:29:25;8.10;99.90
42099;DHT22;27758;55.900;8.516;2023-02-20T14:31:53;8.10;99.90
42099;DHT22;27758;55.900;8.516;2023-02-20T14:37:55;8.10;99.90
42099;DHT22;27758;55.900;8.516;2023-02-20T14:40:42;8.10;99.90
42099;DHT22;27758;55.900;8.516;2023-02-20T14:43:22;8.20;99.90
42099;DHT22;27758;55.900;8.516;2023-02-20T14:46:04;8.10;99.90
42099;DHT22;27758;55.900;8.516;2023-02-20T14:48:36;8.10;99.90
42099;DHT22;27758;55.900;8.516;2023-02-20T14:53:42;8.10;99.90
42099;DHT22;27758;55.900;8.516;2023-02-20T14:56:14;8.10;99.90
42099;DHT22;27758;55.900;8.516;2023-02-20T14:58:40;8.00;99.90
42099;DHT22;27758;55.900;8.516;2023-02-20T15:04:02;8.00;99.90
42099;DHT22;27758;55.900;8.516;2023-02-20T15:06:33;7.90;99.90
42099;DHT22;27758;55.900;8.516;2023-02-20T15:08:59;7.90;99.90
42099;DHT22;27758;55.900;8.516;2023-02-20T15:11:26;7.90;99.90
42099;DHT22;27758;55.900;8.516;2023-02-20T15:13:52;8.00;99.90
42099;DHT22;27758;55.900;8.516;2023-02-20T15:16:33;7.90;99.90
42099;DHT22;27758;55.900;8.516;2023-02-20T15:19:19;7.90;99.90
42099;DHT22;27758;55.900;8.516;2023-02-20T15:21:55;7.90;99.90
42099;DHT22;27758;55.900;8.516;2023-02-20T15:26:49;7.80;99.90
42099;DHT22;27758;55.900;8.516;2023-02-20T15:29:20;7.80;99.90
42099;DHT22;27758;55.900;8.516;2023-02-20T15:32:02;7.80;99.90
42099;DHT22;27758;55.900;8.516;2023-02-20T15:34:36;7.80;99.90
42099;DHT22;27758;55.900;8.516;2023-02-20T15:39:43;7.80;99.90
42099;DHT22;27758;55.900;8.516;2023-02-20T15:42:12;7.80;99.90
42099;DHT22;27758;55.900;8.516;2023-02-20T15:44:38;7.80;99.90
42099;DHT22;27758;55.900;8.516;2023-02-20T15:47:03;7.80;99.90
42099;DHT22;27758;55.900;8.516;2023-02-20T15:49:29;7.80;99.90
42099;DHT22;27758;55.900;8.516;2023-02-20T15:51:57;7.80;99.90
42099;DHT22;27758;55.900;8.516;2023-02-20T15:54:22;7.70;99.90
42099;DHT22;27758;55.900;8.516;2023-02-20T15:56:48;7.70;99.90
42099;DHT22;27758;55.900;8.516;2023-02-20T15:59:15;7.60;99.90
42099;DHT22;27758;55.900;8.516;2023-02-20T16:01:42;7.60;99.90
42099;DHT22;27758;55.900;8.516;2023-02-20T16:04:09;7.50;99.90
42099;DHT22;27758;55.900;8.516;2023-02-20T16:06:35;7.50;99.90
42099;DHT22;27758;55.900;8.516;2023-02-20T16:09:02;7.50;99.90
42099;DHT22;27758;55.900;8.516;2023-02-20T16:11:35;7.50;99.90
42099;DHT22;27758;55.900;8.516;2023-02-20T16:14:02;7.50;99.90
42099;DHT22;27758;55.900;8.516;2023-02-20T16:16:46;7.40;99.90
42099;DHT22;27758;55.900;8.516;2023-02-20T16:19:30;7.40;99.90
42099;DHT22;27758;55.900;8.516;2023-02-20T16:21:56;7.40;99.90
42099;DHT22;27758;55.900;8.516;2023-02-20T16:24:22;7.40;99.90
42099;DHT22;27758;55.900;8.516;2023-02-20T16:26:48;7.30;99.90
42099;DHT22;27758;55.900;8.516;2023-02-20T16:29:16;7.30;99.90
42099;DHT22;27758;55.900;8.516;2023-02-20T16:34:32;7.30;99.90
42099;DHT22;27758;55.900;8.516;2023-02-20T16:36:59;7.20;99.90
42099;DHT22;27758;55.900;8.516;2023-02-20T16:39:25;7.20;99.90
42099;DHT22;27758;55.900;8.516;2023-02-20T16:41:51;7.20;99.90
42099;DHT22;27758;55.900;8.516;2023-02-20T16:44:36;7.20;99.90
42099;DHT22;27758;55.900;8.516;2023-02-20T16:47:07;7.20;99.90
42099;DHT22;27758;55.900;8.516;2023-02-20T16:49:33;7.10;99.90
42099;DHT22;27758;55.900;8.516;2023-02-20T16:52:03;7.10;99.90
42099;DHT22;27758;55.900;8.516;2023-02-20T16:54:36;7.10;99.90
42099;DHT22;27758;55.900;8.516;2023-02-20T16:57:02;7.10;99.90
42099;DHT22;27758;55.900;8.516;2023-02-20T16:59:28;7.10;99.90
42099;DHT22;27758;55.900;8.516;2023-02-20T17:01:53;7.00;99.90
42099;DHT22;27758;55.900;8.516;2023-02-20T17:04:19;7.00;99.90
42099;DHT22;27758;55.900;8.516;2023-02-20T17:06:45;7.00;99.90
42099;DHT22;27758;55.900;8.516;2023-02-20T17:09:12;7.00;99.90
42099;DHT22;27758;55.900;8.516;2023-02-20T17:11:37;7.00;99.90
42099;DHT22;27758;55.900;8.516;2023-02-20T17:14:03;7.00;99.90
42099;DHT22;27758;55.900;8.516;2023-02-20T17:16:28;6.90;99.90
42099;DHT22;27758;55.900;8.516;2023-02-20T17:18:54;6.90;99.90
42099;DHT22;27758;55.900;8.516;2023-02-20T17:21:21;6.90;99.90
42099;DHT22;27758;55.900;8.516;2023-02-20T17:23:46;6.90;99.90
42099;DHT22;27758;55.900;8.516;2023-02-20T17:26:12;6.90;99.90
42099;DHT22;27758;55.900;8.516;2023-02-20T17:28:39;6.90;99.90
42099;DHT22;27758;55.900;8.516;2023-02-20T17:31:04;6.90;99.90
42099;DHT22;27758;55.900;8.516;2023-02-20T17:33:30;6.90;99.90
42099;DHT22;27758;55.900;8.516;2023-02-20T17:35:59;6.90;99.90
42099;DHT22;27758;55.900;8.516;2023-02-20T17:38:25;6.90;99.90
42099;DHT22;27758;55.900;8.516;2023-02-20T17:40:50;6.90;99.90
42099;DHT22;27758;55.900;8.516;2023-02-20T17:43:17;6.90;99.90
42099;DHT22;27758;55.900;8.516;2023-02-20T17:45:42;6.90;99.90
42099;DHT22;27758;55.900;8.516;2023-02-20T17:48:08;6.90;99.90
42099;DHT22;27758;55.900;8.516;2023-02-20T17:50:34;6.90;99.90
42099;DHT22;27758;55.900;8.516;2023-02-20T17:52:59;6.90;99.90
42099;DHT22;27758;55.900;8.516;2023-02-20T17:55:26;6.80;99.90
42099;DHT22;27758;55.900;8.516;2023-02-20T17:57:52;6.80;99.90
42099;DHT22;27758;55.900;8.516;2023-02-20T18:00:19;6.80;99.90
42099;DHT22;27758;55.900;8.516;2023-02-20T18:02:45;6.80;99.90
42099;DHT22;27758;55.900;8.516;2023-02-20T18:05:11;6.80;99.90
42099;DHT22;27758;55.900;8.516;2023-02-20T18:07:37;6.80;99.90